Time;durP1;ratioP1;P1;durP2;ratioP2;P2;SDS_P1;SDS_P2;PMS_P1;PMS_P2;Temp;Humidity;BMP_temperature;BMP_pressure;BME280_temperature;BME280_humidity;BME280_pressure;Samples;Min_cycle;Max_cycle;Signal;HPM_P1;HPM_P2
2022/08/07 00:01:56;;;;;;;4.47;2.90;;;16.40;99.90;;;;;;5034956;28;20194;-86
2022/08/07 00:04:22;;;;;;;2.67;2.47;;;16.30;99.90;;;;;;5052364;28;20229;-86
2022/08/07 00:06:48;;;;;;;3.73;2.87;;;16.30;99.90;;;;;;5035399;28;20232;-86
2022/08/07 00:09:13;;;;;;;3.20;3.00;;;16.20;99.90;;;;;;5035460;28;20661;-86
2022/08/07 00:11:39;;;;;;;3.80;2.60;;;16.20;99.90;;;;;;5035105;28;20262;-86
2022/08/07 00:14:05;;;;;;;3.50;2.53;;;16.10;99.90;;;;;;5035403;28;20268;-86
2022/08/07 00:16:31;;;;;;;2.67;2.20;;;16.00;99.90;;;;;;5035101;28;20174;-85
2022/08/07 00:18:57;;;;;;;2.67;2.47;;;15.90;99.90;;;;;;5051696;28;20207;-86
2022/08/07 00:21:23;;;;;;;3.47;2.40;;;15.90;99.90;;;;;;5035328;28;20309;-86
2022/08/07 00:23:49;;;;;;;2.63;2.37;;;15.90;99.90;;;;;;5015757;28;20214;-86
2022/08/07 00:26:14;;;;;;;3.03;2.60;;;15.80;99.90;;;;;;5014937;28;20179;-86
2022/08/07 00:28:42;;;;;;;3.10;2.77;;;15.70;99.90;;;;;;5031594;28;20179;-86
2022/08/07 00:31:10;;;;;;;3.40;2.50;;;15.70;99.90;;;;;;5015024;28;20231;-86
2022/08/07 00:33:37;;;;;;;2.87;2.27;;;15.70;99.90;;;;;;5031529;28;20182;-86
2022/08/07 00:36:04;;;;;;;3.00;2.70;;;15.70;99.90;;;;;;5015254;28;20190;-86
2022/08/07 00:38:32;;;;;;;3.10;2.80;;;15.70;99.90;;;;;;5014930;28;20289;-86
2022/08/07 00:40:59;;;;;;;3.23;2.70;;;15.70;99.90;;;;;;5015042;28;20230;-86
2022/08/07 00:43:26;;;;;;;3.33;2.67;;;15.70;99.90;;;;;;5015488;28;20198;-86
2022/08/07 00:45:52;;;;;;;2.77;2.50;;;15.70;99.90;;;;;;5015458;28;20699;-86
2022/08/07 00:48:19;;;;;;;2.57;2.37;;;15.60;99.90;;;;;;5032709;28;20204;-86
2022/08/07 00:50:44;;;;;;;3.40;2.37;;;15.50;99.90;;;;;;5014065;28;20190;-86
2022/08/07 00:53:48;;;;;;;3.23;2.37;;;15.40;99.90;;;;;;5015092;28;20178;-86
2022/08/07 00:56:14;;;;;;;3.13;2.50;;;15.40;99.90;;;;;;5015113;28;20185;-86
2022/08/07 00:58:42;;;;;;;2.87;2.43;;;15.40;99.90;;;;;;5015511;28;20194;-86
2022/08/07 01:01:08;;;;;;;3.13;2.07;;;15.40;99.90;;;;;;5014949;28;20232;-86
2022/08/07 01:03:34;;;;;;;2.50;2.30;;;15.50;99.90;;;;;;5031614;28;20214;-86
2022/08/07 01:06:01;;;;;;;2.90;2.20;;;15.50;99.90;;;;;;5014964;28;20174;-86
2022/08/07 01:08:28;;;;;;;3.67;2.23;;;15.50;99.90;;;;;;5014878;28;20175;-86
2022/08/07 01:10:54;;;;;;;3.47;2.10;;;15.50;99.90;;;;;;5014570;28;20271;-86
2022/08/07 01:13:20;;;;;;;2.57;2.37;;;15.40;99.90;;;;;;5015046;28;20190;-86
2022/08/07 01:15:48;;;;;;;2.50;2.30;;;15.30;99.90;;;;;;5014882;28;20212;-86
2022/08/07 01:18:14;;;;;;;2.33;2.10;;;15.20;99.90;;;;;;5014857;28;20190;-85
2022/08/07 01:20:45;;;;;;;2.90;2.47;;;15.20;99.90;;;;;;5014651;28;20181;-86
2022/08/07 01:23:12;;;;;;;3.17;2.00;;;15.10;99.90;;;;;;5014861;28;20205;-86
2022/08/07 01:25:39;;;;;;;3.63;2.33;;;15.10;99.90;;;;;;5047608;28;20263;-86
2022/08/07 01:28:05;;;;;;;2.57;2.10;;;15.10;99.90;;;;;;5048005;28;20232;-86
2022/08/07 01:30:32;;;;;;;3.67;2.30;;;15.10;99.90;;;;;;5047499;28;20199;-86
2022/08/07 01:32:58;;;;;;;2.13;1.93;;;15.10;99.90;;;;;;5047648;28;20182;-86
2022/08/07 01:35:28;;;;;;;3.10;2.17;;;15.10;99.90;;;;;;5046890;28;20192;-86
2022/08/07 01:37:54;;;;;;;2.47;2.23;;;15.00;99.90;;;;;;5031175;28;20214;-86
2022/08/07 01:40:21;;;;;;;3.40;2.30;;;15.00;99.90;;;;;;5047146;28;20250;-86
2022/08/07 01:42:55;;;;;;;2.73;2.50;;;15.00;99.90;;;;;;5046539;28;20227;-85
2022/08/07 01:45:21;;;;;;;3.10;2.80;;;15.00;99.90;;;;;;5031379;28;20274;-86
2022/08/07 01:47:50;;;;;;;3.50;2.70;;;14.90;99.90;;;;;;5015326;28;20228;-86
2022/08/07 01:50:19;;;;;;;3.17;2.83;;;14.80;99.90;;;;;;5046988;28;20176;-86
2022/08/07 01:52:47;;;;;;;3.80;2.73;;;14.80;99.90;;;;;;5050663;28;20204;-86
2022/08/07 01:55:15;;;;;;;3.83;2.63;;;14.70;99.90;;;;;;5050761;28;20181;-86
2022/08/07 01:57:42;;;;;;;4.10;2.60;;;14.70;99.90;;;;;;5034078;28;20242;-86
2022/08/07 02:00:11;;;;;;;4.60;2.87;;;14.70;99.90;;;;;;5034198;28;20192;-86
2022/08/07 02:02:49;;;;;;;3.43;2.50;;;14.70;99.90;;;;;;5038271;28;20220;-86
2022/08/07 02:05:31;;;;;;;4.17;2.80;;;14.60;99.90;;;;;;5056746;28;20249;-86
2022/08/07 02:08:04;;;;;;;2.83;2.40;;;14.50;99.90;;;;;;5038287;28;20233;-86
2022/08/07 02:10:36;;;;;;;2.50;2.30;;;14.30;99.90;;;;;;5037830;28;20180;-86
2022/08/07 02:13:05;;;;;;;2.80;2.10;;;14.30;99.90;;;;;;5038337;28;20178;-86
2022/08/07 02:15:53;;;;;;;2.60;2.30;;;14.30;99.90;;;;;;5040694;28;20272;-85
2022/08/07 02:18:21;;;;;;;2.43;2.23;;;14.30;99.90;;;;;;5038045;28;20183;-86
2022/08/07 02:20:50;;;;;;;2.90;2.60;;;14.30;99.90;;;;;;5054783;28;20202;-86
2022/08/07 02:23:17;;;;;;;2.77;2.57;;;14.20;99.90;;;;;;5038898;28;20209;-86
2022/08/07 02:25:44;;;;;;;2.80;2.60;;;14.20;99.90;;;;;;5032989;28;20172;-86
2022/08/07 02:28:13;;;;;;;5.47;3.20;;;14.30;99.90;;;;;;5031046;28;20187;-86
2022/08/07 02:30:40;;;;;;;4.80;2.77;;;14.20;99.90;;;;;;5040002;28;20173;-86
2022/08/07 02:33:08;;;;;;;2.77;2.57;;;14.20;99.90;;;;;;5040471;28;20182;-86
2022/08/07 02:35:36;;;;;;;2.90;2.70;;;14.20;99.90;;;;;;5040118;28;20183;-86
2022/08/07 02:38:06;;;;;;;4.80;2.90;;;14.30;99.90;;;;;;5018220;28;20262;-86
2022/08/07 02:40:37;;;;;;;4.23;2.80;;;14.20;99.90;;;;;;5017329;28;20204;-85
2022/08/07 02:43:06;;;;;;;3.43;2.80;;;14.20;99.90;;;;;;5017387;28;20283;-85
2022/08/07 02:45:35;;;;;;;3.33;2.23;;;14.30;99.90;;;;;;5033839;28;20169;-86
2022/08/07 02:48:02;;;;;;;2.50;2.30;;;14.30;99.90;;;;;;5017089;28;20174;-86
2022/08/07 02:50:32;;;;;;;3.97;2.30;;;14.30;99.90;;;;;;5016849;28;20202;-85
2022/08/07 02:53:10;;;;;;;2.90;2.60;;;14.30;99.90;;;;;;5017122;28;20193;-86
2022/08/07 02:55:41;;;;;;;4.17;2.60;;;14.30;99.90;;;;;;5049818;28;20172;-85
2022/08/07 02:58:10;;;;;;;2.73;2.53;;;14.30;99.90;;;;;;5033735;28;20224;-85
2022/08/07 03:00:40;;;;;;;3.07;2.40;;;14.30;99.90;;;;;;5033059;28;20207;-86
2022/08/07 03:03:10;;;;;;;2.83;2.63;;;14.40;99.90;;;;;;5047880;28;20209;-86
2022/08/07 03:05:41;;;;;;;3.10;2.90;;;14.40;99.90;;;;;;5033242;28;20171;-85
2022/08/07 03:08:08;;;;;;;3.53;2.67;;;14.40;99.90;;;;;;5049547;28;20184;-86
2022/08/07 03:10:37;;;;;;;2.80;2.60;;;14.30;99.90;;;;;;5049282;28;20714;-86
2022/08/07 03:13:04;;;;;;;3.13;2.70;;;14.20;99.90;;;;;;5049160;28;20190;-86
2022/08/07 03:15:31;;;;;;;3.00;2.57;;;14.10;99.90;;;;;;5049693;28;20188;-86
2022/08/07 03:17:58;;;;;;;4.50;2.60;;;14.00;99.90;;;;;;5049589;28;20181;-85
2022/08/07 03:20:25;;;;;;;3.07;2.60;;;14.00;99.90;;;;;;5032678;28;20186;-85
2022/08/07 03:22:53;;;;;;;2.90;2.70;;;13.90;99.90;;;;;;5052822;28;20208;-85
2022/08/07 03:25:22;;;;;;;3.90;2.80;;;13.80;99.90;;;;;;5036205;28;20182;-86
2022/08/07 03:27:53;;;;;;;3.30;3.00;;;13.80;99.90;;;;;;5036973;28;20174;-86
2022/08/07 03:30:21;;;;;;;2.77;2.57;;;13.70;99.90;;;;;;5035815;28;20178;-86
2022/08/07 03:32:51;;;;;;;3.00;2.80;;;13.70;99.90;;;;;;5036109;28;20232;-85
2022/08/07 03:35:22;;;;;;;3.03;2.83;;;13.70;99.90;;;;;;5036203;28;20189;-86
2022/08/07 03:38:02;;;;;;;3.37;2.60;;;13.70;99.90;;;;;;5036087;28;20178;-86
2022/08/07 03:40:31;;;;;;;4.03;3.00;;;13.70;99.90;;;;;;5035652;28;20202;-86
2022/08/07 03:43:00;;;;;;;3.60;3.30;;;13.70;99.90;;;;;;5035950;28;20195;-85
2022/08/07 03:45:27;;;;;;;3.30;3.00;;;13.70;99.90;;;;;;5035809;28;20219;-85
2022/08/07 03:48:30;;;;;;;3.63;2.67;;;13.70;99.90;;;;;;5035808;28;20174;-86
2022/08/07 03:50:57;;;;;;;4.23;2.97;;;13.60;99.90;;;;;;5035579;28;20294;-86
2022/08/07 03:53:27;;;;;;;3.40;2.90;;;13.50;99.90;;;;;;5019834;28;20187;-86
2022/08/07 03:55:55;;;;;;;3.83;3.00;;;13.40;99.90;;;;;;5015747;28;20179;-85
2022/08/07 03:58:22;;;;;;;3.27;2.97;;;13.40;99.90;;;;;;5016031;28;20699;-85
2022/08/07 04:00:55;;;;;;;5.67;2.83;;;13.40;99.90;;;;;;5015178;28;20296;-86
2022/08/07 04:03:22;;;;;;;4.13;2.63;;;13.40;99.90;;;;;;5017680;28;20574;-85
2022/08/07 04:05:50;;;;;;;2.93;2.53;;;13.40;99.90;;;;;;5016276;28;20207;-85
2022/08/07 04:08:20;;;;;;;3.23;2.77;;;13.30;99.90;;;;;;5016070;28;20180;-85
2022/08/07 04:10:48;;;;;;;2.80;2.60;;;13.30;99.90;;;;;;5015279;28;20195;-85
2022/08/07 04:13:15;;;;;;;2.70;2.50;;;13.30;99.90;;;;;;5015669;28;20226;-86
2022/08/07 04:15:43;;;;;;;3.73;2.77;;;13.30;99.90;;;;;;5015752;28;20207;-86
2022/08/07 04:18:14;;;;;;;5.03;2.90;;;13.40;99.90;;;;;;5015883;28;20267;-85
2022/08/07 04:20:43;;;;;;;3.87;3.37;;;13.30;99.90;;;;;;5027710;28;20166;-85
2022/08/07 04:23:11;;;;;;;3.27;2.93;;;13.30;99.90;;;;;;5025140;28;20268;-85
2022/08/07 04:25:40;;;;;;;3.57;2.90;;;13.20;99.90;;;;;;5048378;28;20190;-85
2022/08/07 04:28:09;;;;;;;6.50;3.00;;;12.90;99.90;;;;;;5032037;28;20174;-86
2022/08/07 04:30:36;;;;;;;4.47;3.23;;;12.80;99.90;;;;;;5048246;28;20277;-86
2022/08/07 04:33:13;;;;;;;3.87;2.90;;;12.80;99.90;;;;;;5046966;28;20181;-85
2022/08/07 04:35:45;;;;;;;5.33;2.90;;;12.70;99.90;;;;;;5048004;28;20202;-86
2022/08/07 04:38:14;;;;;;;4.37;3.07;;;12.80;99.90;;;;;;5048008;28;20178;-85
2022/08/07 04:40:55;;;;;;;3.23;2.90;;;12.90;99.90;;;;;;5046923;28;20225;-85
2022/08/07 04:43:36;;;;;;;4.23;2.80;;;12.90;99.90;;;;;;5031570;28;20198;-85
2022/08/07 04:46:12;;;;;;;7.30;3.00;;;12.90;99.90;;;;;;5031808;28;20191;-86
2022/08/07 04:48:53;;;;;;;4.17;3.30;;;13.00;99.90;;;;;;5015754;28;20276;-86
2022/08/07 04:51:41;;;;;;;3.90;2.90;;;13.10;99.90;;;;;;5014672;28;20277;-86
2022/08/07 04:54:57;;;;;;;3.90;3.20;;;13.20;99.90;;;;;;5031330;28;20167;-86
2022/08/07 04:58:04;;;;;;;3.27;2.97;;;13.30;99.90;;;;;;5015061;28;20259;-86
2022/08/07 05:01:14;;;;;;;2.93;2.73;;;13.40;99.90;;;;;;5004382;28;20193;-86
2022/08/07 05:04:13;;;;;;;3.30;3.00;;;13.60;99.90;;;;;;5014982;28;20289;-86
2022/08/07 05:06:41;;;;;;;3.10;2.80;;;13.70;99.90;;;;;;5015277;28;20179;-85
2022/08/07 05:09:21;;;;;;;4.40;2.97;;;13.90;99.90;;;;;;5014897;28;20182;-86
2022/08/07 05:11:50;;;;;;;3.00;2.73;;;14.00;99.90;;;;;;5014797;28;20195;-86
2022/08/07 05:14:35;;;;;;;4.10;3.10;;;14.10;99.90;;;;;;5015039;28;20200;-86
2022/08/07 05:17:04;;;;;;;3.13;2.83;;;14.20;99.90;;;;;;5014915;28;20543;-86
2022/08/07 05:19:35;;;;;;;3.00;2.80;;;14.30;99.90;;;;;;5014913;28;20189;-86
2022/08/07 05:22:03;;;;;;;4.03;3.00;;;14.40;99.90;;;;;;5018803;28;20237;-86
2022/08/07 05:24:33;;;;;;;3.67;2.80;;;14.50;99.90;;;;;;5035048;28;20211;-86
2022/08/07 05:27:01;;;;;;;3.00;2.70;;;14.60;99.90;;;;;;5034494;28;20184;-86
2022/08/07 05:29:28;;;;;;;3.23;2.50;;;14.70;99.90;;;;;;5034418;28;20244;-86
2022/08/07 05:31:55;;;;;;;4.20;2.77;;;14.80;99.90;;;;;;5034238;28;20213;-86
2022/08/07 05:34:27;;;;;;;2.80;2.60;;;14.90;99.90;;;;;;5035216;28;20192;-86
2022/08/07 05:36:54;;;;;;;3.33;2.87;;;15.00;99.90;;;;;;5036996;28;20224;-86
2022/08/07 05:39:28;;;;;;;2.83;2.50;;;15.00;99.90;;;;;;5039251;28;20180;-86
2022/08/07 05:41:58;;;;;;;3.10;2.80;;;15.00;99.90;;;;;;5038488;28;20200;-86
2022/08/07 05:44:27;;;;;;;3.13;2.83;;;15.10;99.90;;;;;;5037998;28;20201;-86
2022/08/07 05:46:53;;;;;;;4.60;2.90;;;15.20;99.90;;;;;;5054688;28;20185;-86
2022/08/07 05:49:24;;;;;;;3.00;2.60;;;15.20;99.90;;;;;;5038539;28;20172;-86
2022/08/07 05:51:51;;;;;;;3.00;2.47;;;15.30;99.90;;;;;;5034853;28;20293;-86
2022/08/07 05:54:20;;;;;;;3.37;2.90;;;15.50;99.90;;;;;;5018595;28;20328;-86
2022/08/07 05:56:47;;;;;;;2.70;2.50;;;15.60;99.90;;;;;;5018367;28;20194;-86
2022/08/07 05:59:17;;;;;;;2.90;2.50;;;15.70;99.90;;;;;;5018286;28;20663;-86
2022/08/07 06:01:45;;;;;;;2.90;2.70;;;15.80;99.90;;;;;;5020492;28;20206;-86
2022/08/07 06:04:15;;;;;;;2.50;2.30;;;15.90;99.90;;;;;;5018569;28;20214;-86
2022/08/07 06:06:43;;;;;;;4.57;2.50;;;15.90;99.90;;;;;;5018506;28;20217;-86
2022/08/07 06:09:10;;;;;;;5.60;2.50;;;16.00;99.90;;;;;;5017934;28;20198;-86
2022/08/07 06:11:40;;;;;;;3.27;2.33;;;16.10;99.90;;;;;;5018028;28;20210;-86
2022/08/07 06:14:07;;;;;;;2.73;2.27;;;16.20;99.90;;;;;;5017712;28;20188;-86
2022/08/07 06:16:34;;;;;;;2.77;2.00;;;16.40;99.90;;;;;;5034073;28;20194;-86
2022/08/07 06:19:04;;;;;;;3.33;2.30;;;16.50;99.90;;;;;;5017206;28;20181;-86
2022/08/07 06:21:32;;;;;;;4.53;2.33;;;16.50;99.90;;;;;;5033829;28;20205;-86
2022/08/07 06:23:59;;;;;;;2.37;2.17;;;16.60;99.90;;;;;;5017630;28;20210;-86
2022/08/07 06:26:25;;;;;;;2.87;2.20;;;16.60;99.90;;;;;;5017324;28;20183;-86
2022/08/07 06:28:55;;;;;;;3.00;2.00;;;16.70;99.90;;;;;;5017566;28;20264;-87
2022/08/07 06:31:25;;;;;;;3.23;2.13;;;16.80;99.90;;;;;;5033628;28;20245;-86
2022/08/07 06:33:53;;;;;;;2.73;2.30;;;17.00;99.90;;;;;;5017867;28;20193;-86
2022/08/07 06:36:19;;;;;;;2.40;2.20;;;17.20;99.90;;;;;;5017376;28;20246;-87
2022/08/07 06:38:53;;;;;;;3.10;2.20;;;17.30;99.90;;;;;;5018582;28;20179;-86
2022/08/07 06:41:42;;;;;;;4.43;2.30;;;17.40;99.90;;;;;;5017226;28;20202;-86
2022/08/07 06:44:12;;;;;;;2.17;1.97;;;17.50;99.90;;;;;;5033591;28;20291;-86
2022/08/07 06:46:39;;;;;;;2.07;1.90;;;17.60;99.90;;;;;;5033746;28;20253;-87
2022/08/07 06:49:06;;;;;;;3.33;2.10;;;17.60;99.90;;;;;;5016703;28;20246;-86
2022/08/07 06:51:36;;;;;;;2.17;1.90;;;17.50;99.90;;;;;;5017940;28;20252;-86
2022/08/07 06:54:08;;;;;;;2.20;1.97;;;17.60;99.90;;;;;;5037318;28;20208;-86
2022/08/07 06:56:39;;;;;;;3.53;2.13;;;17.70;99.90;;;;;;5036547;28;20178;-86
2022/08/07 06:59:14;;;;;;;3.17;2.23;;;17.80;99.90;;;;;;5037317;28;20181;-86
2022/08/07 07:01:45;;;;;;;2.50;2.30;;;17.90;99.90;;;;;;5036627;28;20202;-86
2022/08/07 07:04:13;;;;;;;2.47;2.13;;;18.00;99.90;;;;;;5036466;28;20214;-86
2022/08/07 07:06:43;;;;;;;3.70;2.23;;;18.10;99.90;;;;;;5037116;28;20186;-86
2022/08/07 07:09:25;;;;;;;3.50;2.20;;;18.30;99.90;;;;;;5036424;28;20177;-86
2022/08/07 07:12:06;;;;;;;2.93;2.50;;;18.50;99.90;;;;;;5036213;28;20327;-86
2022/08/07 07:14:52;;;;;;;2.73;2.13;;;18.60;99.90;;;;;;5036959;28;20174;-86
2022/08/07 07:17:33;;;;;;;3.43;2.40;;;18.80;99.90;;;;;;5036053;28;20197;-86
2022/08/07 07:20:04;;;;;;;3.83;2.57;;;18.90;99.90;;;;;;5052697;28;20170;-86
2022/08/07 07:22:31;;;;;;;3.35;2.17;;;19.10;99.90;;;;;;5027626;28;20215;-87
2022/08/07 07:24:59;;;;;;;3.90;2.53;;;19.30;99.90;;;;;;5016460;28;20183;-86
2022/08/07 07:27:30;;;;;;;5.05;2.40;;;19.50;99.90;;;;;;5016413;28;20178;-86
2022/08/07 07:30:01;;;;;;;3.70;2.67;;;19.70;99.90;;;;;;5015971;28;20192;-86
2022/08/07 07:32:32;;;;;;;3.05;2.70;;;19.90;99.90;;;;;;5016354;28;20297;-86
2022/08/07 07:35:02;;;;;;;3.53;3.00;;;20.10;99.90;;;;;;5032847;28;20189;-87
2022/08/07 07:37:30;;;;;;;3.05;2.85;;;20.30;99.90;;;;;;5016340;28;20175;-86
2022/08/07 07:40:00;;;;;;;3.55;2.53;;;20.40;99.90;;;;;;5016066;28;20266;-87
2022/08/07 07:42:26;;;;;;;3.50;3.20;;;20.60;99.90;;;;;;5015741;28;20210;-87
2022/08/07 07:44:54;;;;;;;2.80;2.60;;;20.60;99.90;;;;;;5032430;28;20185;-86
2022/08/07 07:47:22;;;;;;;3.20;2.90;;;20.70;99.90;;;;;;5032507;28;20184;-86
2022/08/07 07:49:50;;;;;;;3.10;2.80;;;20.80;99.90;;;;;;5032279;28;20183;-86
2022/08/07 07:52:17;;;;;;;3.88;2.90;;;20.90;99.90;;;;;;5015592;28;20329;-87
2022/08/07 07:54:46;;;;;;;3.08;2.42;;;21.10;99.90;;;;;;5049211;28;20213;-86
2022/08/07 07:57:13;;;;;;;3.22;2.60;;;21.20;99.90;;;;;;5033299;28;20386;-86
2022/08/07 07:59:40;;;;;;;2.85;2.65;;;21.30;99.90;;;;;;5052172;28;20182;-87
2022/08/07 08:02:08;;;;;;;2.60;2.38;;;21.50;99.90;;;;;;5065832;28;20256;-86
2022/08/07 08:04:36;;;;;;;2.83;2.38;;;21.60;99.90;;;;;;5049047;28;20206;-87
2022/08/07 08:07:02;;;;;;;3.22;2.38;;;21.80;99.90;;;;;;5049354;28;20175;-87
2022/08/07 08:09:29;;;;;;;2.42;2.22;;;21.90;99.90;;;;;;5048790;28;20185;-87
2022/08/07 08:11:57;;;;;;;3.20;2.08;;;22.10;99.90;;;;;;5048421;28;20270;-87
2022/08/07 08:14:23;;;;;;;2.00;1.90;;;22.10;99.90;;;;;;5048326;28;20185;-86
2022/08/07 08:16:50;;;;;;;2.22;1.90;;;22.20;99.90;;;;;;5048486;28;20179;-86
2022/08/07 08:19:23;;;;;;;2.00;1.90;;;22.40;99.90;;;;;;5048372;28;20170;-86
2022/08/07 08:27:36;;;;;;;2.30;1.70;;;22.80;99.90;;;;;;5052851;28;20185;-86
2022/08/07 08:30:11;;;;;;;2.42;2.22;;;22.80;99.90;;;;;;5034914;28;20176;-86
2022/08/07 08:32:45;;;;;;;1.73;1.63;;;22.90;99.90;;;;;;5035034;28;20204;-86
2022/08/07 08:35:17;;;;;;;2.72;1.98;;;23.10;99.90;;;;;;5035132;28;20251;-86
2022/08/07 08:37:46;;;;;;;2.40;1.75;;;23.30;99.90;;;;;;5051584;28;20213;-87
2022/08/07 08:40:21;;;;;;;2.83;1.60;;;23.50;99.90;;;;;;5034575;28;20272;-86
2022/08/07 08:42:55;;;;;;;2.55;1.70;;;23.60;99.90;;;;;;5034649;28;20669;-86
2022/08/07 08:45:32;;;;;;;2.70;1.65;;;23.60;99.90;;;;;;5034905;28;20177;-86
2022/08/07 08:48:01;;;;;;;2.78;1.55;;;23.70;99.90;;;;;;5035221;28;20169;-87
2022/08/07 08:50:36;;;;;;;3.70;1.95;;;23.90;99.90;;;;;;5034788;28;20182;-87
2022/08/07 08:53:18;;;;;;;1.77;1.67;;;24.00;99.90;;;;;;5021851;28;20190;-87
2022/08/07 08:55:50;;;;;;;1.60;1.50;;;24.10;99.90;;;;;;5015045;28;20178;-87
2022/08/07 08:58:30;;;;;;;2.22;1.52;;;24.20;99.80;;;;;;5015370;28;20170;-86
2022/08/07 09:01:25;;;;;;;1.73;1.63;;;24.20;99.80;;;;;;5014899;28;20202;-86
2022/08/07 09:04:07;;;;;;;1.77;1.67;;;24.30;99.90;;;;;;5014745;28;20306;-86
2022/08/07 09:07:07;;;;;;;3.05;1.65;;;24.40;99.80;;;;;;5015190;28;20168;-86
2022/08/07 09:10:00;;;;;;;1.60;1.50;;;24.50;99.20;;;;;;5014578;28;20167;-86
2022/08/07 09:12:38;;;;;;;1.50;1.40;;;24.60;98.30;;;;;;5018375;28;20226;-86
2022/08/07 09:15:10;;;;;;;2.03;1.67;;;24.80;98.40;;;;;;5035437;28;20185;-86
2022/08/07 09:17:52;;;;;;;2.67;1.60;;;25.00;98.80;;;;;;5018867;28;20208;-86
2022/08/07 09:20:31;;;;;;;2.35;1.63;;;25.00;98.20;;;;;;5034898;28;20174;-86
2022/08/07 09:23:21;;;;;;;1.40;1.30;;;25.10;97.60;;;;;;5018428;28;20310;-86
2022/08/07 09:26:17;;;;;;;1.40;1.30;;;25.20;97.90;;;;;;5051661;28;20186;-86
2022/08/07 09:28:51;;;;;;;1.80;1.48;;;25.30;97.40;;;;;;5051529;28;20265;-87
2022/08/07 09:31:42;;;;;;;1.80;1.50;;;25.40;97.00;;;;;;5034788;28;20255;-86
2022/08/07 09:34:12;;;;;;;1.55;1.30;;;25.50;97.60;;;;;;5051609;28;20179;-86
2022/08/07 09:37:01;;;;;;;2.05;1.60;;;25.60;96.30;;;;;;5018398;28;20186;-86
2022/08/07 09:39:48;;;;;;;1.40;1.25;;;25.60;96.00;;;;;;5018619;28;20175;-86
2022/08/07 09:42:36;;;;;;;2.83;1.30;;;25.70;96.00;;;;;;5051412;28;20195;-86
2022/08/07 09:45:30;;;;;;;1.38;1.27;;;25.80;95.40;;;;;;5051522;28;20185;-86
2022/08/07 09:48:33;;;;;;;3.08;1.20;;;26.00;95.30;;;;;;5030895;28;20201;-85
2022/08/07 09:51:11;;;;;;;1.27;1.17;;;26.10;94.60;;;;;;5017672;28;20201;-86
2022/08/07 09:53:43;;;;;;;1.38;1.25;;;26.20;94.60;;;;;;5035829;28;20197;-86
2022/08/07 09:56:12;;;;;;;1.20;1.10;;;26.20;94.20;;;;;;5038394;28;20182;-86
2022/08/07 09:59:02;;;;;;;1.40;1.30;;;26.40;94.40;;;;;;5040137;28;20182;-86
2022/08/07 10:02:06;;;;;;;1.30;1.20;;;26.20;93.90;;;;;;5037667;28;20297;-86
2022/08/07 10:04:44;;;;;;;1.90;1.23;;;26.30;94.70;;;;;;5037603;28;20221;-86
2022/08/07 10:07:24;;;;;;;1.45;1.20;;;26.30;93.60;;;;;;5037683;28;20265;-86
2022/08/07 10:10:09;;;;;;;2.45;1.20;;;26.20;93.50;;;;;;5037871;28;20174;-86
2022/08/07 10:13:11;;;;;;;1.98;1.17;;;26.10;93.40;;;;;;5036975;28;20260;-86
2022/08/07 10:15:49;;;;;;;1.27;1.17;;;26.30;93.80;;;;;;5054342;28;20166;-86
2022/08/07 10:18:37;;;;;;;1.20;1.10;;;26.30;93.30;;;;;;5037275;28;20252;-86
2022/08/07 10:21:25;;;;;;;2.08;1.15;;;26.40;93.60;;;;;;5037776;28;20262;-86
2022/08/07 10:24:12;;;;;;;2.55;1.00;;;26.40;92.90;;;;;;5034479;28;20225;-86
2022/08/07 10:26:44;;;;;;;2.13;1.52;;;26.50;92.30;;;;;;5040327;28;20182;-87
2022/08/07 10:29:47;;;;;;;1.88;1.27;;;26.70;92.00;;;;;;5017580;28;20225;-87
2022/08/07 10:32:43;;;;;;;1.38;1.20;;;26.70;91.60;;;;;;5033586;28;20194;-87
2022/08/07 10:35:43;;;;;;;1.20;1.10;;;26.80;90.90;;;;;;5017312;28;20693;-87
2022/08/07 10:38:21;;;;;;;1.73;1.02;;;26.90;90.80;;;;;;5017319;28;20651;-87
2022/08/07 10:40:53;;;;;;;1.17;1.08;;;27.10;89.30;;;;;;5016387;28;20210;-87
2022/08/07 10:43:34;;;;;;;1.15;1.02;;;27.10;88.50;;;;;;5032742;28;20203;-87
2022/08/07 10:46:08;;;;;;;1.38;1.27;;;27.10;86.40;;;;;;5017269;28;20224;-87
2022/08/07 10:48:34;;;;;;;1.40;1.08;;;27.30;87.10;;;;;;5033450;28;20178;-87
2022/08/07 10:51:26;;;;;;;1.60;1.17;;;27.10;87.80;;;;;;5017101;28;20229;-87
2022/08/07 10:54:05;;;;;;;1.42;0.90;;;27.30;86.30;;;;;;5016552;28;20198;-87
2022/08/07 10:57:02;;;;;;;1.17;1.00;;;27.60;86.40;;;;;;5017172;28;20186;-87
2022/08/07 10:59:34;;;;;;;1.00;1.00;;;27.70;85.80;;;;;;5033553;28;20182;-87
2022/08/07 11:02:17;;;;;;;1.13;1.00;;;27.80;85.40;;;;;;5016395;28;20314;-87
2022/08/07 11:05:02;;;;;;;0.90;0.90;;;28.00;84.20;;;;;;5033197;28;20226;-87
2022/08/07 11:07:39;;;;;;;2.45;1.27;;;28.00;83.10;;;;;;5034411;28;20161;-87
2022/08/07 11:10:15;;;;;;;1.17;0.93;;;27.90;83.60;;;;;;5016817;28;20224;-87
2022/08/07 11:12:56;;;;;;;2.47;0.85;;;28.00;83.10;;;;;;5016520;28;20194;-87
2022/08/07 11:15:25;;;;;;;0.98;0.90;;;28.10;82.90;;;;;;5016805;28;20179;-86
2022/08/07 11:18:13;;;;;;;3.13;1.20;;;28.10;83.10;;;;;;5016236;28;20221;-86
2022/08/07 11:20:51;;;;;;;1.27;1.17;;;27.90;83.10;;;;;;5016489;28;20183;-86
2022/08/07 11:23:49;;;;;;;1.15;0.90;;;28.00;81.70;;;;;;5017003;28;20278;-86
2022/08/07 11:26:52;;;;;;;1.45;0.95;;;28.20;81.00;;;;;;5016473;28;20207;-87
2022/08/07 11:29:30;;;;;;;1.50;1.10;;;28.30;80.40;;;;;;5014596;28;20190;-87
2022/08/07 11:32:11;;;;;;;1.00;0.90;;;28.50;79.60;;;;;;5016065;28;20202;-86
2022/08/07 11:34:52;;;;;;;2.55;0.90;;;28.50;80.10;;;;;;5016212;28;20214;-86
2022/08/07 11:37:43;;;;;;;1.02;1.00;;;28.70;80.40;;;;;;5032903;28;20247;-86
2022/08/07 11:40:30;;;;;;;1.48;0.85;;;28.70;80.00;;;;;;5031847;28;20178;-86
2022/08/07 11:43:22;;;;;;;0.80;0.80;;;28.50;80.00;;;;;;5016192;28;20225;-86
2022/08/07 11:46:06;;;;;;;0.98;0.88;;;28.90;78.30;;;;;;5049678;28;20175;-86
2022/08/07 11:48:55;;;;;;;1.05;0.90;;;28.90;76.80;;;;;;5042890;28;20171;-86
2022/08/07 11:51:45;;;;;;;1.00;0.90;;;28.80;77.20;;;;;;5016565;28;20210;-86
2022/08/07 11:54:14;;;;;;;0.90;0.85;;;28.70;77.40;;;;;;5016101;28;20198;-86
2022/08/07 11:57:01;;;;;;;2.03;1.20;;;28.60;79.50;;;;;;5015975;28;20202;-86
2022/08/07 11:59:43;;;;;;;2.17;1.10;;;29.00;78.90;;;;;;5015944;28;20193;-86
2022/08/07 12:02:34;;;;;;;1.10;1.02;;;29.10;80.40;;;;;;5015926;28;20229;-86
2022/08/07 12:05:26;;;;;;;1.15;1.05;;;29.40;78.80;;;;;;5015513;28;20188;-87
2022/08/07 12:08:27;;;;;;;2.67;1.02;;;29.40;79.10;;;;;;5032311;28;20179;-87
2022/08/07 12:11:23;;;;;;;1.42;0.90;;;29.50;77.70;;;;;;5013102;28;20309;-87
2022/08/07 12:13:58;;;;;;;1.10;1.10;;;29.50;77.70;;;;;;5015810;28;20213;-87
2022/08/07 12:16:30;;;;;;;1.08;1.00;;;29.30;78.90;;;;;;5015387;28;20170;-87
2022/08/07 12:19:23;;;;;;;1.05;0.95;;;29.50;77.20;;;;;;5015169;28;20186;-86
2022/08/07 12:22:20;;;;;;;1.08;1.02;;;29.70;76.90;;;;;;5033415;28;20304;-87
2022/08/07 12:27:42;;;;;;;1.35;1.20;;;29.70;77.80;;;;;;5051683;28;20192;-87
2022/08/07 12:30:09;;;;;;;1.00;1.00;;;29.80;77.00;;;;;;5034985;28;20174;-87
2022/08/07 12:32:39;;;;;;;1.42;1.20;;;29.60;75.80;;;;;;5035105;28;20206;-88
2022/08/07 12:35:09;;;;;;;1.65;0.90;;;29.80;77.10;;;;;;5035170;28;20277;-87
2022/08/07 12:37:38;;;;;;;1.38;1.00;;;29.90;75.40;;;;;;5034857;28;20173;-87
2022/08/07 12:40:06;;;;;;;1.20;1.00;;;30.10;76.00;;;;;;5034868;28;20651;-88
2022/08/07 12:42:34;;;;;;;1.02;1.00;;;30.20;75.50;;;;;;5051456;28;20193;-88
2022/08/07 12:45:17;;;;;;;1.10;0.98;;;30.30;76.30;;;;;;5034438;28;20177;-88
2022/08/07 12:47:58;;;;;;;1.65;1.30;;;30.40;74.50;;;;;;5034760;28;20208;-87
2022/08/07 12:50:40;;;;;;;0.98;0.98;;;30.40;74.80;;;;;;5034457;28;20186;-88
2022/08/07 12:53:10;;;;;;;1.20;1.10;;;30.70;74.80;;;;;;5051124;28;20237;-88
2022/08/07 12:55:45;;;;;;;1.50;1.00;;;31.00;73.80;;;;;;5034681;28;20178;-88
2022/08/07 12:58:15;;;;;;;1.27;1.15;;;30.80;73.90;;;;;;5034678;28;20264;-88
2022/08/07 13:01:01;;;;;;;1.00;0.90;;;30.80;74.80;;;;;;5034277;28;20178;-87
2022/08/07 13:03:56;;;;;;;4.15;1.20;;;30.80;73.70;;;;;;5051302;28;20178;-88
2022/08/07 13:06:48;;;;;;;1.42;1.20;;;30.80;75.10;;;;;;5034708;28;20178;-88
2022/08/07 13:09:34;;;;;;;1.05;0.93;;;31.10;74.60;;;;;;5051242;28;20178;-88
2022/08/07 13:12:24;;;;;;;1.60;1.10;;;31.20;73.80;;;;;;5034158;28;20590;-88
2022/08/07 13:15:19;;;;;;;0.93;0.90;;;31.30;73.40;;;;;;5051003;28;20206;-88
2022/08/07 13:18:06;;;;;;;1.33;1.23;;;31.20;72.60;;;;;;5025467;28;20182;-88
2022/08/07 13:20:49;;;;;;;1.10;1.00;;;30.70;73.30;;;;;;5034054;28;20702;-88
2022/08/07 13:23:53;;;;;;;2.15;0.90;;;30.70;73.80;;;;;;5019568;28;20194;-88
2022/08/07 13:26:18;;;;;;;1.33;1.20;;;31.10;72.90;;;;;;4984295;28;20194;-87
2022/08/07 13:29:07;;;;;;;1.10;1.00;;;31.20;74.60;;;;;;5014500;28;20182;-88
2022/08/07 13:32:00;;;;;;;1.23;1.08;;;31.30;73.10;;;;;;5030678;28;20202;-88
2022/08/07 13:34:43;;;;;;;1.35;1.25;;;31.20;73.90;;;;;;5014581;28;20233;-88
2022/08/07 13:37:28;;;;;;;1.25;1.15;;;31.40;73.40;;;;;;5014732;28;20257;-88